Time;durP1;ratioP1;P1;durP2;ratioP2;P2;SDS_P1;SDS_P2;PMS_P1;PMS_P2;Temp;Humidity;BMP_temperature;BMP_pressure;BME280_temperature;BME280_humidity;BME280_pressure;Samples;Min_cycle;Max_cycle;Signal;HPM_P1;HPM_P2
2021/07/01 00:01:57;;;;;;;0.50;0.50;;;13.70;99.90;;;;;;5056821;28;20130;-80
2021/07/01 00:04:24;;;;;;;0.10;0.10;;;13.80;99.90;;;;;;5060639;28;20032;-80
2021/07/01 00:06:50;;;;;;;0.08;0.08;;;13.70;99.90;;;;;;5066251;28;20477;-80
2021/07/01 00:09:26;;;;;;;4.50;2.10;;;13.70;99.90;;;;;;5057067;28;20036;-80
2021/07/01 00:11:55;;;;;;;0.25;0.25;;;13.70;99.90;;;;;;5052855;28;20267;-80
2021/07/01 00:14:21;;;;;;;0.20;0.20;;;13.60;99.90;;;;;;5056289;28;20029;-80
2021/07/01 00:16:48;;;;;;;0.30;0.30;;;13.60;99.90;;;;;;5057816;28;20151;-80
2021/07/01 00:19:14;;;;;;;;;;;13.60;99.90;;;;;;5051735;28;20039;-80
2021/07/01 00:21:40;;;;;;;0.90;0.45;;;13.60;99.90;;;;;;5054809;28;19909;-80
2021/07/01 00:24:06;;;;;;;0.10;0.10;;;13.50;99.90;;;;;;5049610;28;20552;-80
2021/07/01 00:26:32;;;;;;;0.20;0.20;;;13.40;99.90;;;;;;5055640;28;20013;-80
2021/07/01 00:28:58;;;;;;;0.87;0.87;;;13.40;99.90;;;;;;5057666;28;20501;-80
2021/07/01 00:31:23;;;;;;;0.10;0.10;;;13.40;99.90;;;;;;5065593;28;20028;-80
2021/07/01 00:33:49;;;;;;;0.40;0.40;;;13.30;99.90;;;;;;5060614;28;20030;-80
2021/07/01 00:36:15;;;;;;;0.10;0.10;;;13.30;99.90;;;;;;5059475;28;20039;-81
2021/07/01 00:38:41;;;;;;;0.10;0.10;;;13.20;99.90;;;;;;5062533;28;20039;-80
2021/07/01 00:41:07;;;;;;;0.10;0.10;;;13.20;99.90;;;;;;5056351;28;20099;-80
2021/07/01 00:43:32;;;;;;;2.50;1.45;;;13.20;99.90;;;;;;5057319;28;20852;-80
2021/07/01 00:45:58;;;;;;;1.83;0.73;;;13.10;99.90;;;;;;5056193;28;20032;-81
2021/07/01 00:48:24;;;;;;;0.13;0.13;;;13.20;99.90;;;;;;5054014;28;20750;-80
2021/07/01 00:50:51;;;;;;;0.17;0.17;;;13.10;99.90;;;;;;5058028;28;20035;-80
2021/07/01 00:53:17;;;;;;;;;;;13.10;99.90;;;;;;5061830;28;20013;-80
2021/07/01 00:55:43;;;;;;;0.15;0.15;;;13.10;99.90;;;;;;5057115;28;19912;-80
2021/07/01 00:58:09;;;;;;;0.20;0.20;;;13.00;99.90;;;;;;5053416;28;20506;-80
2021/07/01 01:03:19;;;;;;;0.17;0.17;;;13.00;1.00;;;;;;5059280;28;20630;-80
2021/07/01 01:05:45;;;;;;;0.40;0.40;;;13.00;1.00;;;;;;5058224;28;20108;-80
2021/07/01 01:08:11;;;;;;;0.10;0.10;;;12.90;1.00;;;;;;5050011;28;20103;-80
2021/07/01 01:10:37;;;;;;;0.10;0.10;;;12.80;1.00;;;;;;5060485;28;20036;-80
2021/07/01 01:13:04;;;;;;;0.15;0.15;;;12.80;1.00;;;;;;5054058;28;20028;-80
2021/07/01 01:15:30;;;;;;;0.20;0.20;;;12.80;99.90;;;;;;5047008;28;20052;-80
2021/07/01 01:17:56;;;;;;;0.25;0.25;;;12.80;99.90;;;;;;5048709;28;20033;-80
2021/07/01 01:20:22;;;;;;;0.23;0.23;;;12.80;99.90;;;;;;5059127;28;20037;-80
2021/07/01 01:22:48;;;;;;;0.98;0.40;;;12.80;1.00;;;;;;5055123;28;20069;-80
2021/07/01 01:25:14;;;;;;;0.15;0.15;;;12.70;1.00;;;;;;5066725;28;20448;-80
2021/07/01 01:27:40;;;;;;;0.35;0.20;;;12.70;22.40;;;;;;5071258;28;20402;-80
2021/07/01 01:30:07;;;;;;;0.40;0.40;;;12.80;70.60;;;;;;5056174;28;20856;-80
2021/07/01 01:32:33;;;;;;;;;;;12.80;99.90;;;;;;5062790;28;20025;-81
2021/07/01 01:34:59;;;;;;;0.20;0.20;;;12.80;99.90;;;;;;5062436;28;20247;-80
2021/07/01 01:37:24;;;;;;;0.30;0.30;;;12.80;99.90;;;;;;5065874;28;20037;-81
2021/07/01 01:39:51;;;;;;;0.20;0.20;;;12.80;99.90;;;;;;5069563;28;20032;-81
2021/07/01 01:42:17;;;;;;;0.17;0.17;;;12.70;99.90;;;;;;5066866;28;20040;-81
2021/07/01 01:44:43;;;;;;;;;;;12.70;99.90;;;;;;5050949;28;20132;-81
2021/07/01 01:47:19;;;;;;;0.00;0.00;;;12.70;99.90;;;;;;5051229;28;20638;-81
2021/07/01 01:49:48;;;;;;;0.10;0.10;;;12.70;99.90;;;;;;5058225;28;20025;-81
2021/07/01 01:52:15;;;;;;;0.32;0.32;;;12.70;99.90;;;;;;5056628;28;20447;-81
2021/07/01 01:54:41;;;;;;;0.17;0.17;;;12.70;99.90;;;;;;5060311;28;20514;-81
2021/07/01 01:57:07;;;;;;;0.10;0.10;;;12.70;99.90;;;;;;5061176;28;20045;-81
2021/07/01 01:59:33;;;;;;;0.10;0.10;;;12.70;99.90;;;;;;5059242;28;20053;-81
2021/07/01 02:01:59;;;;;;;0.10;0.10;;;12.70;99.90;;;;;;5058354;28;20090;-81
2021/07/01 02:04:25;;;;;;;0.22;0.22;;;12.70;99.90;;;;;;5051694;28;20021;-81
2021/07/01 02:06:54;;;;;;;0.30;0.20;;;12.70;99.90;;;;;;5064587;28;20032;-81
2021/07/01 02:09:20;;;;;;;0.10;0.10;;;12.70;99.90;;;;;;5063296;28;20029;-80
2021/07/01 02:11:46;;;;;;;0.38;0.20;;;12.70;99.90;;;;;;5060199;28;20489;-80
2021/07/01 02:14:12;;;;;;;0.10;0.10;;;12.70;99.90;;;;;;5058108;28;20045;-80
2021/07/01 02:16:38;;;;;;;0.20;0.20;;;12.70;99.90;;;;;;5062567;28;20035;-80
2021/07/01 02:19:04;;;;;;;0.37;0.30;;;12.60;99.90;;;;;;5063891;28;20039;-80
2021/07/01 02:21:30;;;;;;;0.10;0.10;;;12.60;99.90;;;;;;5057224;28;20037;-80
2021/07/01 02:23:55;;;;;;;0.10;0.10;;;12.60;99.90;;;;;;5062340;28;20413;-81
2021/07/01 02:26:21;;;;;;;0.10;0.10;;;12.50;99.90;;;;;;5058231;28;20027;-80
2021/07/01 02:28:47;;;;;;;0.10;0.10;;;12.50;99.90;;;;;;5054213;28;20028;-81
2021/07/01 02:31:13;;;;;;;0.17;0.17;;;12.50;99.90;;;;;;5061124;28;20549;-81
2021/07/01 02:33:39;;;;;;;0.37;0.37;;;12.40;99.90;;;;;;5054617;28;20025;-81
2021/07/01 02:36:06;;;;;;;0.10;0.10;;;12.50;99.90;;;;;;5054191;28;20025;-81
2021/07/01 02:38:32;;;;;;;0.10;0.10;;;12.50;99.90;;;;;;5063365;28;20017;-81
2021/07/01 02:40:58;;;;;;;0.10;0.10;;;12.50;99.90;;;;;;5058796;28;20029;-81
2021/07/01 02:43:23;;;;;;;0.10;0.10;;;12.40;32.10;;;;;;5055468;28;20059;-81
2021/07/01 02:45:49;;;;;;;0.30;0.30;;;12.40;1.00;;;;;;5057554;28;20028;-81
2021/07/01 02:48:15;;;;;;;0.20;0.20;;;12.40;1.00;;;;;;5059084;28;20039;-80
2021/07/01 02:50:41;;;;;;;0.30;0.30;;;12.40;1.00;;;;;;5067551;28;20276;-80
2021/07/01 02:53:07;;;;;;;0.63;0.53;;;12.30;1.00;;;;;;5057870;28;20091;-80
2021/07/01 02:55:34;;;;;;;0.10;0.10;;;12.40;1.00;;;;;;5055745;28;20027;-80
2021/07/01 02:58:01;;;;;;;0.40;0.40;;;12.40;1.00;;;;;;5056740;28;20029;-80
2021/07/01 03:00:27;;;;;;;0.13;0.13;;;12.30;1.00;;;;;;5058129;28;20028;-81
2021/07/01 03:02:53;;;;;;;0.10;0.10;;;12.30;1.00;;;;;;5064467;28;20059;-81
2021/07/01 03:05:18;;;;;;;0.10;0.10;;;12.30;1.00;;;;;;5062913;28;20028;-80
2021/07/01 03:07:44;;;;;;;0.20;0.20;;;12.30;1.00;;;;;;5051754;28;20024;-80
2021/07/01 03:10:10;;;;;;;0.10;0.10;;;12.30;1.00;;;;;;5056806;28;20116;-81
2021/07/01 03:12:36;;;;;;;0.75;0.68;;;12.30;1.00;;;;;;5066564;28;20855;-81
2021/07/01 03:15:03;;;;;;;0.13;0.13;;;12.30;1.00;;;;;;5059720;28;20024;-81
2021/07/01 03:17:30;;;;;;;0.20;0.20;;;12.30;1.00;;;;;;5065526;28;20064;-80
2021/07/01 03:19:57;;;;;;;0.32;0.32;;;12.30;5.60;;;;;;5070551;28;20111;-81
2021/07/01 03:22:23;;;;;;;0.10;0.10;;;12.30;18.40;;;;;;5060024;28;20021;-81
2021/07/01 03:24:49;;;;;;;0.10;0.10;;;12.30;21.50;;;;;;5058921;28;20032;-80
2021/07/01 03:27:15;;;;;;;2.08;0.65;;;12.30;58.20;;;;;;5049873;28;20029;-81
2021/07/01 03:29:41;;;;;;;0.27;0.27;;;12.30;86.50;;;;;;5064870;28;20628;-81
2021/07/01 03:32:07;;;;;;;0.57;0.57;;;12.30;60.80;;;;;;5056536;28;20013;-81
2021/07/01 03:34:33;;;;;;;9.93;0.83;;;12.30;28.80;;;;;;5055845;28;20029;-81
2021/07/01 03:36:59;;;;;;;0.10;0.10;;;12.30;1.00;;;;;;5057647;28;20051;-80
2021/07/01 03:39:26;;;;;;;0.20;0.20;;;12.30;1.00;;;;;;5056042;28;20036;-80
2021/07/01 03:41:52;;;;;;;0.10;0.10;;;12.30;1.00;;;;;;5065592;28;20498;-80
2021/07/01 03:44:18;;;;;;;0.10;0.10;;;12.30;1.00;;;;;;5055836;28;20032;-80
2021/07/01 03:46:44;;;;;;;0.20;0.20;;;12.20;1.00;;;;;;5052134;28;20070;-80
2021/07/01 03:49:12;;;;;;;0.20;0.20;;;12.20;1.00;;;;;;5061506;28;20104;-80
2021/07/01 03:51:38;;;;;;;0.38;0.38;;;12.20;1.00;;;;;;5058347;28;20029;-80
2021/07/01 03:54:04;;;;;;;0.17;0.17;;;12.30;1.00;;;;;;5064339;28;20040;-80
2021/07/01 03:56:40;;;;;;;0.25;0.25;;;12.30;99.90;;;;;;5065077;28;20064;-80
2021/07/01 03:59:08;;;;;;;0.32;0.20;;;12.30;99.90;;;;;;5058383;28;20107;-80
2021/07/01 04:01:34;;;;;;;0.28;0.25;;;12.30;99.90;;;;;;5051206;28;20033;-80
2021/07/01 04:04:00;;;;;;;0.30;0.30;;;12.30;99.90;;;;;;5056777;28;20036;-80
2021/07/01 04:06:26;;;;;;;0.10;0.10;;;12.40;99.90;;;;;;5051426;28;20025;-80
2021/07/01 04:08:52;;;;;;;0.22;0.22;;;12.30;99.90;;;;;;5060910;28;20020;-80
2021/07/01 04:11:18;;;;;;;0.43;0.43;;;12.40;99.90;;;;;;5050938;28;20028;-80
2021/07/01 04:13:44;;;;;;;0.30;0.30;;;12.40;99.90;;;;;;5059850;28;20032;-80
2021/07/01 04:16:09;;;;;;;0.20;0.20;;;12.30;99.90;;;;;;5061811;28;20027;-80
2021/07/01 04:18:35;;;;;;;0.20;0.20;;;12.40;99.90;;;;;;5050492;28;20024;-80
2021/07/01 04:21:01;;;;;;;0.30;0.30;;;12.40;65.30;;;;;;5059791;28;20119;-81
2021/07/01 04:23:27;;;;;;;0.30;0.30;;;12.40;44.50;;;;;;5052113;28;20513;-81
2021/07/01 04:25:53;;;;;;;0.10;0.10;;;12.40;4.40;;;;;;5060170;28;20083;-80
2021/07/01 04:28:19;;;;;;;0.50;0.50;;;12.50;1.00;;;;;;5060794;28;20052;-80
2021/07/01 04:30:44;;;;;;;0.50;0.50;;;12.40;1.00;;;;;;5049580;28;20471;-80
2021/07/01 04:33:10;;;;;;;0.98;0.90;;;12.40;1.00;;;;;;5055028;28;20044;-80
2021/07/01 04:35:37;;;;;;;0.55;0.55;;;12.40;99.90;;;;;;5059111;28;20032;-80
2021/07/01 04:38:03;;;;;;;0.30;0.20;;;12.50;99.90;;;;;;5048260;28;20053;-80
2021/07/01 04:40:29;;;;;;;0.28;0.28;;;12.50;99.90;;;;;;5048451;28;20496;-81
2021/07/01 04:42:55;;;;;;;0.20;0.20;;;12.50;1.00;;;;;;5050684;28;20067;-81
2021/07/01 04:45:21;;;;;;;0.10;0.10;;;12.50;1.00;;;;;;5063735;28;20024;-81
2021/07/01 04:47:47;;;;;;;0.10;0.10;;;12.50;99.90;;;;;;5057839;28;20174;-82
2021/07/01 04:50:12;;;;;;;0.10;0.10;;;12.50;99.90;;;;;;5057701;28;20024;-82
2021/07/01 04:52:38;;;;;;;0.23;0.17;;;12.50;99.90;;;;;;5050082;28;20021;-82
2021/07/01 04:55:05;;;;;;;0.97;0.63;;;12.50;99.90;;;;;;5063567;28;20109;-82
2021/07/01 04:57:31;;;;;;;0.20;0.20;;;12.50;99.90;;;;;;5057241;28;20036;-81
2021/07/01 04:59:56;;;;;;;0.25;0.25;;;12.50;99.90;;;;;;5064750;28;20039;-82
2021/07/01 05:02:22;;;;;;;0.23;0.17;;;12.50;99.90;;;;;;5061943;28;20029;-82
2021/07/01 05:04:48;;;;;;;0.10;0.10;;;12.60;99.90;;;;;;5059523;28;20059;-81
2021/07/01 05:07:14;;;;;;;0.10;0.10;;;12.70;99.90;;;;;;5058293;28;20028;-82
2021/07/01 05:09:40;;;;;;;0.32;0.32;;;12.60;99.90;;;;;;5066318;28;20028;-82
2021/07/01 05:12:06;;;;;;;0.10;0.10;;;12.70;93.10;;;;;;5052683;28;20482;-82
2021/07/01 05:14:32;;;;;;;0.25;0.25;;;12.70;41.80;;;;;;5064239;28;20032;-82
2021/07/01 05:16:58;;;;;;;0.10;0.10;;;12.70;1.00;;;;;;5064867;28;20405;-81
2021/07/01 05:19:23;;;;;;;1.08;1.02;;;12.70;1.00;;;;;;5065616;28;20033;-82
2021/07/01 05:21:49;;;;;;;0.33;0.23;;;12.80;1.00;;;;;;5060038;28;20588;-82
2021/07/01 05:24:15;;;;;;;0.10;0.10;;;12.80;1.00;;;;;;5056423;28;20528;-82
2021/07/01 05:26:41;;;;;;;0.45;0.45;;;12.90;1.00;;;;;;5056238;28;20395;-82
2021/07/01 05:29:06;;;;;;;0.43;0.43;;;12.90;99.90;;;;;;5056020;28;20040;-82
2021/07/01 05:31:32;;;;;;;0.50;0.50;;;13.10;99.90;;;;;;5056208;28;20083;-82
2021/07/01 05:34:00;;;;;;;0.28;0.28;;;13.20;99.90;;;;;;5055564;28;20033;-82
2021/07/01 05:36:25;;;;;;;0.30;0.30;;;13.10;99.90;;;;;;5056655;28;20971;-84
2021/07/01 05:38:51;;;;;;;0.22;0.22;;;13.20;99.90;;;;;;5054893;28;20028;-82
2021/07/01 05:41:17;;;;;;;0.20;0.20;;;13.30;99.90;;;;;;5067071;28;20067;-81
2021/07/01 05:43:43;;;;;;;0.10;0.10;;;13.20;99.90;;;;;;5059456;28;20063;-81
2021/07/01 05:46:08;;;;;;;0.20;0.20;;;13.40;99.90;;;;;;5046809;28;20631;-82
2021/07/01 05:48:34;;;;;;;0.83;0.53;;;13.60;99.90;;;;;;5048155;28;20094;-83
2021/07/01 05:51:03;;;;;;;0.10;0.10;;;13.60;99.90;;;;;;5046597;28;20033;-81
2021/07/01 05:53:32;;;;;;;0.30;0.30;;;13.10;99.90;;;;;;5058810;28;20028;-80
2021/07/01 05:55:59;;;;;;;0.15;0.15;;;13.70;99.90;;;;;;5067351;28;20497;-80
2021/07/01 05:58:25;;;;;;;0.20;0.20;;;13.70;99.90;;;;;;5062077;28;20032;-81
2021/07/01 06:00:51;;;;;;;0.10;0.10;;;14.60;99.90;;;;;;5066623;28;20051;-81
2021/07/01 06:03:17;;;;;;;0.10;0.10;;;14.70;99.90;;;;;;5068019;28;20107;-81
2021/07/01 06:05:50;;;;;;;0.00;0.00;;;14.10;99.90;;;;;;5068134;28;20025;-81
2021/07/01 06:08:17;;;;;;;0.10;0.10;;;14.50;99.90;;;;;;5052518;28;20482;-83
2021/07/01 06:10:43;;;;;;;0.22;0.22;;;15.90;99.90;;;;;;5050286;28;20025;-81
2021/07/01 06:13:10;;;;;;;3.53;0.45;;;17.90;99.90;;;;;;5067148;28;20025;-82
2021/07/01 06:15:37;;;;;;;0.10;0.10;;;17.20;99.90;;;;;;5065541;28;20036;-81
2021/07/01 06:18:03;;;;;;;0.03;0.03;;;16.80;99.90;;;;;;5060403;28;20024;-81
2021/07/01 06:20:29;;;;;;;0.00;0.00;;;16.10;99.90;;;;;;5062115;28;20029;-81
2021/07/01 06:22:55;;;;;;;0.03;0.03;;;16.00;99.90;;;;;;5069167;28;20746;-81
2021/07/01 06:25:22;;;;;;;0.10;0.10;;;17.00;99.90;;;;;;5070776;28;20035;-81
2021/07/01 06:27:49;;;;;;;0.00;0.00;;;18.10;99.90;;;;;;5070530;28;20065;-81
2021/07/01 06:30:23;;;;;;;0.32;0.32;;;18.80;99.90;;;;;;5071027;28;20024;-82
2021/07/01 06:32:53;;;;;;;0.10;0.10;;;19.80;99.90;;;;;;5070465;28;20021;-82
2021/07/01 06:35:22;;;;;;;0.00;0.00;;;20.10;99.90;;;;;;5068431;28;20033;-82
2021/07/01 06:37:49;;;;;;;0.10;0.10;;;20.60;99.90;;;;;;5070449;28;20032;-82
2021/07/01 06:40:15;;;;;;;0.20;0.20;;;20.80;99.90;;;;;;5070851;28;20017;-82
2021/07/01 06:42:50;;;;;;;;;;;20.70;99.90;;;;;;5067676;28;20056;-82
2021/07/01 06:45:18;;;;;;;0.00;0.00;;;20.90;99.90;;;;;;5051439;28;19928;-81
2021/07/01 06:47:49;;;;;;;0.60;0.20;;;21.00;99.90;;;;;;5067746;28;20504;-83
2021/07/01 06:50:17;;;;;;;0.08;0.08;;;20.90;99.90;;;;;;5066890;28;20052;-82
2021/07/01 06:52:44;;;;;;;0.90;0.30;;;21.90;99.90;;;;;;5051685;28;20032;-83
2021/07/01 06:55:13;;;;;;;0.10;0.10;;;21.50;99.90;;;;;;5065844;28;20032;-82
2021/07/01 06:57:40;;;;;;;0.00;0.00;;;22.20;99.90;;;;;;5069448;28;20067;-83
2021/07/01 07:00:08;;;;;;;0.00;0.00;;;23.40;99.90;;;;;;5068646;28;20020;-82
2021/07/01 07:02:34;;;;;;;0.22;0.22;;;24.40;99.90;;;;;;5059440;28;20035;-83
2021/07/01 07:05:12;;;;;;;1.92;0.28;;;23.90;99.90;;;;;;5060301;28;20025;-84
2021/07/01 07:07:43;;;;;;;0.00;0.00;;;23.20;99.90;;;;;;5059200;28;20025;-84
2021/07/01 07:10:10;;;;;;;0.10;0.10;;;23.70;99.90;;;;;;5062135;28;20405;-84
2021/07/01 07:12:40;;;;;;;0.43;0.30;;;23.20;99.90;;;;;;5068920;28;20055;-84
2021/07/01 07:15:08;;;;;;;0.00;0.00;;;22.90;99.90;;;;;;5069589;28;20024;-84
2021/07/01 07:17:37;;;;;;;0.10;0.10;;;23.30;99.90;;;;;;5069985;28;20081;-85
2021/07/01 07:20:05;;;;;;;0.00;0.00;;;23.70;99.90;;;;;;5069842;28;20584;-85
2021/07/01 07:22:34;;;;;;;0.05;0.05;;;24.10;99.90;;;;;;5070358;28;20037;-85
2021/07/01 07:25:04;;;;;;;0.30;0.30;;;23.80;99.90;;;;;;5069886;28;20025;-85
2021/07/01 07:27:31;;;;;;;0.00;0.00;;;23.80;99.90;;;;;;5070041;28;20031;-85
2021/07/01 07:29:58;;;;;;;0.10;0.00;;;25.20;99.90;;;;;;5069695;28;20020;-85
2021/07/01 07:32:29;;;;;;;0.03;0.03;;;24.90;99.90;;;;;;5069836;28;20383;-85
2021/07/01 07:34:54;;;;;;;0.00;0.00;;;26.30;99.90;;;;;;5061184;28;20021;-85
2021/07/01 07:37:20;;;;;;;0.05;0.05;;;26.50;99.90;;;;;;5048127;28;20032;-85
2021/07/01 07:39:47;;;;;;;2.10;0.70;;;26.80;99.90;;;;;;5049634;28;20021;-87
2021/07/01 07:42:14;;;;;;;0.05;0.05;;;27.00;99.90;;;;;;5049474;28;20049;-86
2021/07/01 07:44:41;;;;;;;0.20;0.20;;;26.60;99.90;;;;;;5049691;28;20033;-85
2021/07/01 07:47:12;;;;;;;0.10;0.10;;;26.20;99.90;;;;;;5049046;28;20032;-86
2021/07/01 07:49:39;;;;;;;0.10;0.10;;;26.50;99.90;;;;;;5049617;28;20028;-86
2021/07/01 07:52:09;;;;;;;0.20;0.13;;;26.00;99.90;;;;;;5048754;28;21007;-86
2021/07/01 07:54:45;;;;;;;0.00;0.00;;;27.40;99.90;;;;;;5049586;28;20024;-86
2021/07/01 07:57:12;;;;;;;0.10;0.10;;;26.90;99.90;;;;;;5049335;28;20033;-86
2021/07/01 07:59:39;;;;;;;0.00;0.00;;;28.30;99.90;;;;;;5067764;28;20095;-86
2021/07/01 08:02:07;;;;;;;0.00;0.00;;;28.40;99.70;;;;;;5067766;28;20151;-86
2021/07/01 08:04:35;;;;;;;0.00;0.00;;;29.50;98.20;;;;;;5069306;28;20371;-86
2021/07/01 08:07:04;;;;;;;0.00;0.00;;;28.70;96.80;;;;;;5067812;28;20481;-86
2021/07/01 08:09:30;;;;;;;0.20;0.10;;;28.90;97.80;;;;;;5069466;28;20062;-86
2021/07/01 08:11:57;;;;;;;;;;;29.80;95.50;;;;;;5069631;28;20863;-86
2021/07/01 08:14:23;;;;;;;0.10;0.10;;;28.10;94.90;;;;;;5068033;28;19919;-87
2021/07/01 08:16:50;;;;;;;0.13;0.13;;;29.10;94.00;;;;;;5069190;28;20024;-86
2021/07/01 08:19:16;;;;;;;0.00;0.00;;;28.30;96.50;;;;;;5067605;28;20170;-85
2021/07/01 08:21:41;;;;;;;;;;;28.00;96.40;;;;;;5069452;28;20793;-85
2021/07/01 08:24:11;;;;;;;0.00;0.00;;;28.30;96.20;;;;;;5068732;28;20381;-85
2021/07/01 08:26:37;;;;;;;0.00;0.00;;;28.90;94.00;;;;;;5068842;28;20492;-85
2021/07/01 08:29:03;;;;;;;0.00;0.00;;;29.10;94.50;;;;;;5068843;28;20764;-86
2021/07/01 08:31:32;;;;;;;0.03;0.03;;;29.80;90.60;;;;;;5066649;28;20036;-86
2021/07/01 08:34:03;;;;;;;0.15;0.10;;;29.60;93.60;;;;;;5068690;28;20025;-86
2021/07/01 08:36:29;;;;;;;0.90;0.10;;;29.90;89.60;;;;;;5048867;28;20025;-86
2021/07/01 08:38:56;;;;;;;0.10;0.10;;;30.60;86.50;;;;;;5047571;28;20502;-86
2021/07/01 08:41:29;;;;;;;0.10;0.10;;;32.40;79.50;;;;;;5048720;28;20028;-86
2021/07/01 08:44:00;;;;;;;0.22;0.10;;;30.60;83.40;;;;;;5048974;28;20109;-86
2021/07/01 08:46:29;;;;;;;0.20;0.20;;;30.00;85.80;;;;;;5048500;28;20037;-86
2021/07/01 08:49:09;;;;;;;0.45;0.28;;;31.00;83.90;;;;;;5047491;28;20017;-86
2021/07/01 08:51:43;;;;;;;0.15;0.15;;;31.00;82.40;;;;;;5048474;28;20033;-85
2021/07/01 08:54:15;;;;;;;0.20;0.20;;;31.30;80.50;;;;;;5048553;28;20025;-86
2021/07/01 08:56:42;;;;;;;0.17;0.17;;;29.70;74.40;;;;;;5048435;28;20037;-86
2021/07/01 08:59:10;;;;;;;0.17;0.10;;;29.90;75.60;;;;;;5048243;28;20021;-85
2021/07/01 09:01:38;;;;;;;0.00;0.00;;;30.30;76.90;;;;;;5061879;28;20407;-85
2021/07/01 09:04:09;;;;;;;0.00;0.00;;;30.80;89.60;;;;;;5048765;28;20674;-85
2021/07/01 09:06:37;;;;;;;0.00;0.00;;;30.80;73.00;;;;;;5066151;28;20033;-86
2021/07/01 09:09:09;;;;;;;0.00;0.00;;;27.90;74.30;;;;;;5055704;28;20008;-86
2021/07/01 09:11:41;;;;;;;0.00;0.00;;;30.30;77.70;;;;;;5052754;28;20029;-86
2021/07/01 09:14:09;;;;;;;0.00;0.00;;;30.20;77.50;;;;;;5051905;28;20028;-85
2021/07/01 09:16:37;;;;;;;0.00;0.00;;;30.10;75.60;;;;;;5056303;28;20040;-86
2021/07/01 09:19:04;;;;;;;0.00;0.00;;;31.00;71.00;;;;;;5057636;28;20020;-86
2021/07/01 09:21:31;;;;;;;0.03;0.00;;;31.00;72.10;;;;;;5052522;28;20946;-86
2021/07/01 09:24:01;;;;;;;0.00;0.00;;;33.90;67.20;;;;;;5053530;28;20036;-86
2021/07/01 09:26:28;;;;;;;0.00;0.00;;;33.10;59.10;;;;;;5056793;28;20056;-86
2021/07/01 09:28:56;;;;;;;0.00;0.00;;;32.40;80.50;;;;;;5049788;28;20522;-86
2021/07/01 09:31:24;;;;;;;0.25;0.25;;;32.90;62.70;;;;;;5053051;28;20029;-86
2021/07/01 09:33:51;;;;;;;0.08;0.00;;;32.70;63.80;;;;;;5057724;28;20029;-86
2021/07/01 09:36:24;;;;;;;0.70;0.28;;;30.90;64.30;;;;;;5049422;28;20056;-86
2021/07/01 09:38:51;;;;;;;0.90;0.80;;;32.10;62.10;;;;;;5050829;28;20044;-86
2021/07/01 09:41:24;;;;;;;0.20;0.10;;;32.40;60.80;;;;;;5051848;28;20441;-85
2021/07/01 09:43:55;;;;;;;0.10;0.10;;;33.50;52.90;;;;;;5052287;28;20045;-86
2021/07/01 09:46:28;;;;;;;0.00;0.00;;;29.90;60.70;;;;;;5052495;28;20048;-86
2021/07/01 09:48:58;;;;;;;0.00;0.00;;;30.40;58.40;;;;;;5057534;28;20031;-86
2021/07/01 09:51:29;;;;;;;0.00;0.00;;;31.80;59.40;;;;;;5063859;28;20222;-86
2021/07/01 09:53:55;;;;;;;0.10;0.10;;;32.10;61.00;;;;;;5059618;28;20025;-85
2021/07/01 09:56:36;;;;;;;;;;;31.60;59.70;;;;;;5062657;28;20909;-85
2021/07/01 09:59:10;;;;;;;0.10;0.10;;;32.50;55.40;;;;;;5043073;28;21425;-85
2021/07/01 10:01:38;;;;;;;0.00;0.00;;;32.50;55.40;;;;;;5056258;28;20033;-85
2021/07/01 10:04:07;;;;;;;0.13;0.13;;;33.90;54.30;;;;;;5052551;28;20078;-85
2021/07/01 10:06:33;;;;;;;0.00;0.00;;;30.80;54.80;;;;;;5063861;28;20539;-85
2021/07/01 10:08:58;;;;;;;0.15;0.00;;;32.30;55.60;;;;;;5058990;28;20028;-85
2021/07/01 10:11:34;;;;;;;0.20;0.20;;;31.20;57.10;;;;;;5059925;28;20036;-85
2021/07/01 10:14:07;;;;;;;0.10;0.10;;;32.30;50.10;;;;;;5061585;28;20021;-85
2021/07/01 10:16:34;;;;;;;0.00;0.00;;;33.50;63.30;;;;;;5051328;28;20774;-85
2021/07/01 10:19:03;;;;;;;0.00;0.00;;;31.10;51.90;;;;;;5061505;28;20448;-85
2021/07/01 10:21:35;;;;;;;0.00;0.00;;;33.50;51.50;;;;;;5064584;28;20692;-85
2021/07/01 10:24:12;;;;;;;1.13;0.38;;;34.10;50.60;;;;;;5058525;28;20112;-85
2021/07/01 10:26:46;;;;;;;0.10;0.10;;;31.60;50.20;;;;;;5054508;28;20087;-85
2021/07/01 10:29:13;;;;;;;0.00;0.00;;;32.70;52.50;;;;;;5059768;28;20021;-85
2021/07/01 10:31:59;;;;;;;0.00;0.00;;;33.70;49.30;;;;;;5055855;28;20075;-85
2021/07/01 10:34:29;;;;;;;0.13;0.13;;;33.70;45.00;;;;;;5063590;28;20013;-85
2021/07/01 10:37:25;;;;;;;0.05;0.05;;;34.00;38.10;;;;;;5051327;28;20058;-84
2021/07/01 10:39:52;;;;;;;0.25;0.25;;;36.80;40.00;;;;;;5058480;28;20025;-85
2021/07/01 10:42:19;;;;;;;0.30;0.30;;;34.30;43.00;;;;;;5062675;28;20062;-84
2021/07/01 10:44:46;;;;;;;0.15;0.00;;;32.30;48.70;;;;;;5052734;28;20025;-84
2021/07/01 10:47:29;;;;;;;0.00;0.00;;;34.30;45.70;;;;;;5063224;28;20035;-83
2021/07/01 10:49:56;;;;;;;0.10;0.10;;;33.80;46.10;;;;;;5070824;28;20099;-85
2021/07/01 10:52:44;;;;;;;0.03;0.03;;;35.70;42.10;;;;;;5070735;28;20107;-84
2021/07/01 10:55:12;;;;;;;0.00;0.00;;;37.40;45.60;;;;;;5069644;28;20028;-84
2021/07/01 10:57:47;;;;;;;0.05;0.05;;;36.70;30.80;;;;;;5069383;28;20024;-83
2021/07/01 11:00:14;;;;;;;0.10;0.10;;;34.10;39.00;;;;;;5069438;28;20077;-85
2021/07/01 11:02:49;;;;;;;0.10;0.10;;;34.40;39.00;;;;;;5070439;28;20298;-84
2021/07/01 11:05:15;;;;;;;8.98;0.25;;;36.60;34.10;;;;;;5070537;28;20024;-85
2021/07/01 11:07:46;;;;;;;0.00;0.00;;;34.90;37.10;;;;;;5070668;28;20024;-86
2021/07/01 11:10:13;;;;;;;0.03;0.03;;;36.20;34.90;;;;;;5070110;28;20020;-85
2021/07/01 11:12:47;;;;;;;0.20;0.20;;;35.70;34.80;;;;;;5070280;28;20012;-86
2021/07/01 11:15:14;;;;;;;0.03;0.03;;;34.50;31.10;;;;;;5070214;28;20036;-87
2021/07/01 11:17:41;;;;;;;0.00;0.00;;;31.80;36.60;;;;;;5070327;28;20027;-86
2021/07/01 11:20:17;;;;;;;0.10;0.10;;;32.50;38.80;;;;;;5068655;28;20032;-86
2021/07/01 11:22:46;;;;;;;0.00;0.00;;;30.30;41.20;;;;;;5070540;28;20028;-87
2021/07/01 11:25:22;;;;;;;0.00;0.00;;;32.30;39.70;;;;;;5070002;28;20029;-85
2021/07/01 11:27:48;;;;;;;0.32;0.17;;;33.30;41.50;;;;;;5070113;28;20031;-84
2021/07/01 11:30:25;;;;;;;0.20;0.20;;;33.10;38.60;;;;;;5068495;28;20111;-84
2021/07/01 11:33:18;;;;;;;0.13;0.10;;;35.90;34.50;;;;;;5069930;28;20028;-84
2021/07/01 11:35:44;;;;;;;0.00;0.00;;;31.20;37.20;;;;;;5068740;28;20745;-84
2021/07/01 11:38:27;;;;;;;0.30;0.30;;;26.00;51.10;;;;;;5069453;28;20028;-83
2021/07/01 11:40:55;;;;;;;0.00;0.00;;;24.50;55.10;;;;;;5062396;28;20054;-84
2021/07/01 11:43:22;;;;;;;1.17;0.10;;;24.30;54.80;;;;;;5048130;28;20071;-84
2021/07/01 11:45:52;;;;;;;0.65;0.32;;;24.10;56.30;;;;;;5047357;28;20928;-84
2021/07/01 11:48:21;;;;;;;0.20;0.20;;;23.70;58.00;;;;;;5048359;28;20029;-84
2021/07/01 11:50:48;;;;;;;0.00;0.00;;;24.20;58.20;;;;;;5049176;28;20039;-84
2021/07/01 11:53:18;;;;;;;0.30;0.10;;;24.20;58.30;;;;;;5047611;28;20402;-84
2021/07/01 11:55:46;;;;;;;0.00;0.00;;;24.70;59.30;;;;;;5049614;28;20049;-84
2021/07/01 11:58:13;;;;;;;0.10;0.10;;;25.00;58.70;;;;;;5047653;28;20021;-84
2021/07/01 12:00:39;;;;;;;0.00;0.00;;;25.70;60.40;;;;;;5049177;28;20029;-84
2021/07/01 12:03:05;;;;;;;0.00;0.00;;;25.60;56.70;;;;;;5049203;28;20070;-84
2021/07/01 12:05:32;;;;;;;2.03;0.43;;;24.80;58.20;;;;;;5049199;28;20520;-84
2021/07/01 12:07:59;;;;;;;0.00;0.00;;;25.40;57.70;;;;;;5049273;28;20040;-84
2021/07/01 12:10:25;;;;;;;1.38;0.50;;;25.60;58.30;;;;;;5049261;28;20082;-84
2021/07/01 12:12:51;;;;;;;0.47;0.45;;;25.10;58.90;;;;;;5049387;28;20108;-84
2021/07/01 12:15:17;;;;;;;0.00;0.00;;;25.80;58.60;;;;;;5049254;28;20033;-84
2021/07/01 12:18:07;;;;;;;0.25;0.25;;;26.40;61.60;;;;;;5049611;28;20032;-84
2021/07/01 12:20:38;;;;;;;0.17;0.17;;;26.40;62.10;;;;;;5049584;28;20060;-84
2021/07/01 12:23:21;;;;;;;0.00;0.00;;;26.70;63.50;;;;;;5049490;28;20071;-84
2021/07/01 12:25:49;;;;;;;0.10;0.10;;;26.90;62.40;;;;;;5048304;28;20029;-84
2021/07/01 12:28:19;;;;;;;0.43;0.15;;;26.70;62.70;;;;;;5049147;28;20032;-84
2021/07/01 12:30:59;;;;;;;0.05;0.05;;;26.40;63.40;;;;;;5049557;28;20021;-84
2021/07/01 12:33:43;;;;;;;0.05;0.05;;;26.10;61.50;;;;;;5048894;28;20700;-84
2021/07/01 12:36:27;;;;;;;0.20;0.20;;;25.90;60.90;;;;;;5066121;28;20028;-84
2021/07/01 12:39:06;;;;;;;0.10;0.10;;;26.70;59.10;;;;;;5067789;28;20062;-84
2021/07/01 12:41:44;;;;;;;0.10;0.10;;;26.00;60.40;;;;;;5067312;28;20108;-84
2021/07/01 12:44:14;;;;;;;0.00;0.00;;;26.20;58.60;;;;;;5068985;28;20032;-84
2021/07/01 12:46:46;;;;;;;0.05;0.05;;;26.60;56.90;;;;;;5068910;28;20143;-84
2021/07/01 12:49:15;;;;;;;0.00;0.00;;;27.00;58.40;;;;;;5069288;28;20025;-84
2021/07/01 12:51:48;;;;;;;0.00;0.00;;;27.20;57.30;;;;;;5069030;28;20052;-84
2021/07/01 12:54:34;;;;;;;0.15;0.15;;;27.50;57.00;;;;;;5068995;28;20409;-84
2021/07/01 12:57:00;;;;;;;0.30;0.30;;;27.70;55.30;;;;;;5065908;28;20035;-84
2021/07/01 12:59:31;;;;;;;0.00;0.00;;;27.60;55.80;;;;;;5068819;28;20028;-84